createdAt,value
2023-01-31T00:00:51.760Z,97386.06
2023-01-31T00:03:20.872Z,97387.56
2023-01-31T00:05:49.863Z,97403.13
2023-01-31T00:08:19.104Z,97406.03
2023-01-31T00:10:47.868Z,97405.47
2023-01-31T00:13:16.734Z,97417.34
2023-01-31T00:15:45.603Z,97425.16
2023-01-31T00:18:14.600Z,97423.41
2023-01-31T00:20:43.472Z,97426.84
2023-01-31T00:23:12.299Z,97436.47
2023-01-31T00:25:41.230Z,97424.56
2023-01-31T00:28:10.062Z,97437.69
2023-01-31T00:30:39.250Z,97438.19
2023-01-31T00:33:08.204Z,97448.53
2023-01-31T00:35:40.776Z,97454.88
2023-01-31T00:38:09.864Z,97463.75
2023-01-31T00:40:39.141Z,97466.03
2023-01-31T00:43:08.423Z,97464.94
2023-01-31T00:45:37.703Z,97468.16
2023-01-31T00:48:06.615Z,97471.56
2023-01-31T00:50:36.021Z,97476.25
2023-01-31T00:53:05.188Z,97480.78
2023-01-31T00:55:34.844Z,97486.78
2023-01-31T00:58:04.431Z,97489.22
2023-01-31T01:00:35.035Z,97487.75
2023-01-31T01:03:04.590Z,97487.13
2023-01-31T01:05:34.154Z,97494.72
2023-01-31T01:08:03.247Z,97504.25
2023-01-31T01:10:32.279Z,97505.25
2023-01-31T01:13:02.884Z,97505.41
2023-01-31T01:15:31.770Z,97519.13
2023-01-31T01:18:00.558Z,97517.34
2023-01-31T01:20:29.379Z,97525.44
2023-01-31T01:22:58.225Z,97532.69
2023-01-31T01:25:27.406Z,97523.81
2023-01-31T01:27:56.169Z,97533.31
2023-01-31T01:30:26.607Z,97531.84
2023-01-31T01:32:56.984Z,97537.69
2023-01-31T01:35:25.861Z,97546.25
2023-01-31T01:37:54.721Z,97550.28
2023-01-31T01:40:24.291Z,97552.53
2023-01-31T01:42:53.165Z,97550.75
2023-01-31T01:45:22.559Z,97551.38
2023-01-31T01:47:57.896Z,97552.84
2023-01-31T01:50:44.661Z,97545.72
2023-01-31T01:53:25.677Z,97564.28
2023-01-31T01:56:07.872Z,97562.16
2023-01-31T01:58:58.221Z,97561.31
2023-01-31T02:01:33.080Z,97564.63
2023-01-31T02:04:03.538Z,97546.91
2023-01-31T02:06:33.032Z,97546.13
2023-01-31T02:09:04.282Z,97547.63
2023-01-31T02:11:33.497Z,97547.66
2023-01-31T02:14:06.099Z,97545.47
2023-01-31T02:16:37.211Z,97530.00
2023-01-31T02:19:18.221Z,97526.19
2023-01-31T02:22:15.681Z,97532.41
2023-01-31T02:25:05.876Z,97532.34
2023-01-31T02:28:09.182Z,97534.91
2023-01-31T02:31:08.489Z,97538.72
2023-01-31T02:33:53.452Z,97535.75
2023-01-31T02:36:57.849Z,97542.38
2023-01-31T02:39:57.541Z,97543.53
2023-01-31T02:42:29.845Z,97552.88
2023-01-31T02:45:20.416Z,97554.88
2023-01-31T02:48:11.278Z,97564.50
2023-01-31T02:50:48.499Z,97567.31
2023-01-31T02:53:50.923Z,97567.78
2023-01-31T02:56:42.215Z,97578.13
2023-01-31T02:59:23.271Z,97581.31
2023-01-31T03:02:04.420Z,97592.88
2023-01-31T03:04:37.317Z,97597.59
2023-01-31T03:07:13.501Z,97603.97
2023-01-31T03:10:03.940Z,97611.56
2023-01-31T03:12:47.886Z,97602.69
2023-01-31T03:16:02.091Z,97605.44
2023-01-31T03:18:37.793Z,97607.09
2023-01-31T03:21:19.493Z,97615.16
2023-01-31T03:23:54.311Z,97627.50
2023-01-31T03:26:24.929Z,97623.78
2023-01-31T03:28:57.888Z,97615.59
2023-01-31T03:31:41.521Z,97625.53
2023-01-31T03:34:13.212Z,97631.88
2023-01-31T03:37:13.559Z,97637.69
2023-01-31T03:40:01.839Z,97646.34
2023-01-31T03:42:51.665Z,97646.91
2023-01-31T03:45:29.392Z,97644.31
2023-01-31T03:48:00.869Z,97643.88
2023-01-31T03:50:39.238Z,97650.72
2023-01-31T03:53:13.748Z,97648.47
2023-01-31T03:55:43.621Z,97648.78
2023-01-31T03:58:16.732Z,97646.50
2023-01-31T04:00:49.730Z,97647.97
2023-01-31T04:03:32.505Z,97647.06
2023-01-31T04:06:02.255Z,97652.38
2023-01-31T04:08:34.250Z,97645.50
2023-01-31T04:11:10.267Z,97645.13
2023-01-31T04:13:39.450Z,97647.47
2023-01-31T04:16:08.852Z,97651.31
2023-01-31T04:18:38.685Z,97653.84
2023-01-31T04:21:08.036Z,97643.09
2023-01-31T04:23:37.537Z,97642.88
2023-01-31T04:26:06.356Z,97640.28
2023-01-31T04:28:35.141Z,97638.47
2023-01-31T04:31:04.055Z,97629.78
2023-01-31T04:33:33.114Z,97633.03
2023-01-31T04:36:02.002Z,97645.78
2023-01-31T04:38:30.899Z,97624.81
2023-01-31T04:40:59.735Z,97639.34
2023-01-31T04:43:28.748Z,97638.69
2023-01-31T04:45:57.538Z,97641.53
2023-01-31T04:48:28.289Z,97638.66
2023-01-31T04:50:57.958Z,97649.56
2023-01-31T04:53:26.877Z,97643.78
2023-01-31T04:55:56.203Z,97646.41
2023-01-31T04:58:25.094Z,97648.69
2023-01-31T05:00:56.166Z,97640.50
2023-01-31T05:03:25.341Z,97627.03
2023-01-31T05:05:54.329Z,97636.19
2023-01-31T05:08:23.094Z,97637.78
2023-01-31T05:10:58.643Z,97640.88
2023-01-31T05:13:28.570Z,97632.66
2023-01-31T05:15:58.813Z,97637.03
2023-01-31T05:18:27.922Z,97636.84
2023-01-31T05:20:56.781Z,97635.41
2023-01-31T05:23:25.722Z,97636.66
2023-01-31T05:25:54.530Z,97634.94
2023-01-31T05:28:24.583Z,97635.56
2023-01-31T05:30:55.117Z,97624.69
2023-01-31T05:33:24.281Z,97636.34
2023-01-31T05:35:53.111Z,97637.22
2023-01-31T05:38:21.954Z,97641.84
2023-01-31T05:40:51.554Z,97634.84
2023-01-31T05:43:20.637Z,97641.72
2023-01-31T05:45:50.586Z,97643.59
2023-01-31T05:48:19.439Z,97630.31
2023-01-31T05:50:50.672Z,97642.53
2023-01-31T05:53:19.777Z,97644.09
2023-01-31T05:55:49.061Z,97647.03
2023-01-31T05:58:17.922Z,97638.38
2023-01-31T06:00:47.719Z,97641.59
2023-01-31T06:03:16.852Z,97635.25
2023-01-31T06:05:45.691Z,97634.16
2023-01-31T06:08:14.666Z,97639.16
2023-01-31T06:10:43.380Z,97649.28
2023-01-31T06:13:12.177Z,97651.34
2023-01-31T06:15:47.020Z,97649.81
2023-01-31T06:18:15.853Z,97647.06
2023-01-31T06:20:44.611Z,97638.66
2023-01-31T06:23:13.459Z,97641.63
2023-01-31T06:25:42.254Z,97623.47
2023-01-31T06:28:11.403Z,97643.34
2023-01-31T06:30:40.380Z,97643.78
2023-01-31T06:33:10.302Z,97648.06
2023-01-31T06:35:39.417Z,97644.41
2023-01-31T06:38:08.398Z,97656.31
2023-01-31T06:40:37.229Z,97648.66
2023-01-31T06:43:06.011Z,97647.09
2023-01-31T06:45:34.781Z,97646.19
2023-01-31T06:48:03.615Z,97646.00
2023-01-31T06:50:32.851Z,97653.06
2023-01-31T06:53:01.759Z,97655.97
2023-01-31T06:55:30.582Z,97647.78
2023-01-31T06:57:59.517Z,97654.09
2023-01-31T07:00:30.424Z,97652.94
2023-01-31T07:02:59.685Z,97654.09
2023-01-31T07:05:29.293Z,97663.28
2023-01-31T07:07:58.164Z,97660.16
2023-01-31T07:10:27.033Z,97665.19
2023-01-31T07:12:55.907Z,97665.00
2023-01-31T07:15:24.766Z,97663.69
2023-01-31T07:17:59.556Z,97657.75
2023-01-31T07:20:28.521Z,97667.44
2023-01-31T07:22:58.567Z,97659.06
2023-01-31T07:25:28.809Z,97667.13
2023-01-31T07:27:57.680Z,97666.91
2023-01-31T07:30:27.006Z,97669.06
2023-01-31T07:32:55.935Z,97665.81
2023-01-31T07:35:24.901Z,97663.16
2023-01-31T07:37:53.892Z,97662.16
2023-01-31T07:40:22.952Z,97662.19
2023-01-31T07:42:51.777Z,97661.41
2023-01-31T07:45:23.553Z,97660.03
2023-01-31T07:48:02.339Z,97663.13
2023-01-31T07:50:31.234Z,97659.13
2023-01-31T07:53:00.666Z,97666.81
2023-01-31T07:55:29.831Z,97662.63
2023-01-31T07:57:58.804Z,97668.28
2023-01-31T08:00:47.041Z,97668.06
2023-01-31T08:03:35.773Z,97670.09
2023-01-31T08:06:13.620Z,97690.41
2023-01-31T08:08:44.162Z,97685.78
2023-01-31T08:11:13.300Z,97676.91
2023-01-31T08:13:42.168Z,97674.88
2023-01-31T08:16:11.362Z,97670.09
2023-01-31T08:18:40.577Z,97680.69
2023-01-31T08:21:12.530Z,97685.81
2023-01-31T08:23:41.922Z,97681.59
2023-01-31T08:26:22.013Z,97682.56
2023-01-31T08:28:53.512Z,97677.78
2023-01-31T08:31:25.592Z,97678.56
2023-01-31T08:33:55.583Z,97679.63
2023-01-31T08:36:27.830Z,97681.47
2023-01-31T08:38:57.227Z,97681.53
2023-01-31T08:41:27.459Z,97680.69
2023-01-31T08:43:59.209Z,97681.19
2023-01-31T08:46:32.941Z,97686.50
2023-01-31T08:49:03.253Z,97685.91
2023-01-31T08:51:32.554Z,97686.56
2023-01-31T08:54:01.496Z,97685.16
2023-01-31T08:56:30.430Z,97676.00
2023-01-31T08:58:59.354Z,97684.22
2023-01-31T09:01:29.227Z,97684.09
2023-01-31T09:03:59.019Z,97682.38
2023-01-31T09:06:28.990Z,97684.19
2023-01-31T09:08:59.373Z,97684.28
2023-01-31T09:11:30.844Z,97686.47
2023-01-31T09:14:00.023Z,97684.41
2023-01-31T09:16:29.205Z,97689.53
2023-01-31T09:18:58.217Z,97682.56
2023-01-31T09:21:27.260Z,97687.13
2023-01-31T09:23:59.635Z,97700.09
2023-01-31T09:26:28.884Z,97688.47
2023-01-31T09:28:59.468Z,97692.78
2023-01-31T09:31:28.711Z,97684.78
2023-01-31T09:33:57.796Z,97691.00
2023-01-31T09:36:27.157Z,97697.41
2023-01-31T09:38:57.370Z,97701.06
2023-01-31T09:41:38.378Z,97684.56
2023-01-31T09:44:15.665Z,97702.03
2023-01-31T09:47:06.243Z,97694.75
2023-01-31T09:49:46.793Z,97699.47
2023-01-31T09:52:15.714Z,97698.56
2023-01-31T09:54:46.376Z,97708.91
2023-01-31T09:57:45.280Z,97710.97
2023-01-31T10:00:26.865Z,97710.63
2023-01-31T10:03:28.332Z,97706.69
2023-01-31T10:06:14.584Z,97708.19
2023-01-31T10:08:43.396Z,97703.13
2023-01-31T10:11:18.735Z,97705.44
2023-01-31T10:13:58.342Z,97706.78
2023-01-31T10:17:04.369Z,97713.50
2023-01-31T10:19:45.509Z,97718.81
2023-01-31T10:23:03.407Z,97713.91
2023-01-31T10:25:39.493Z,97715.81
2023-01-31T10:28:30.887Z,97719.16
2023-01-31T10:31:24.876Z,97719.06
2023-01-31T10:34:04.786Z,97719.00
2023-01-31T10:36:36.075Z,97726.16
2023-01-31T10:39:22.150Z,97724.09
2023-01-31T10:42:14.061Z,97716.88
2023-01-31T10:44:56.411Z,97732.38
2023-01-31T10:47:48.892Z,97726.19
2023-01-31T10:50:31.573Z,97730.84
2023-01-31T10:53:32.783Z,97733.63
2023-01-31T10:56:22.921Z,97734.81
2023-01-31T10:58:53.800Z,97734.88
2023-01-31T11:01:23.516Z,97738.47
2023-01-31T11:03:55.508Z,97736.50
2023-01-31T11:06:25.769Z,97745.56
2023-01-31T11:09:02.174Z,97743.28
2023-01-31T11:11:31.113Z,97749.63
2023-01-31T11:14:06.031Z,97745.66
2023-01-31T11:16:40.578Z,97753.97
2023-01-31T11:19:45.237Z,97748.13
2023-01-31T11:22:34.639Z,97746.09
2023-01-31T11:25:05.377Z,97754.59
2023-01-31T11:27:39.411Z,97742.28
2023-01-31T11:30:21.086Z,97737.63
2023-01-31T11:32:50.635Z,97744.16
2023-01-31T11:35:19.661Z,97739.16
2023-01-31T11:37:54.132Z,97734.91
2023-01-31T11:40:36.356Z,97737.22
2023-01-31T11:43:07.743Z,97740.13
2023-01-31T11:45:44.053Z,97745.13
2023-01-31T11:48:20.450Z,97737.69
2023-01-31T11:50:55.141Z,97734.16
2023-01-31T11:53:27.860Z,97734.88
2023-01-31T11:56:13.871Z,97730.03
2023-01-31T11:58:44.332Z,97723.44
2023-01-31T12:01:17.670Z,97731.41
2023-01-31T12:04:02.692Z,97740.03
2023-01-31T12:06:42.253Z,97729.84
2023-01-31T12:09:26.298Z,97730.44
2023-01-31T12:11:58.346Z,97729.84
2023-01-31T12:14:40.442Z,97720.25
2023-01-31T12:17:18.692Z,97719.16
2023-01-31T12:19:56.578Z,97723.53
2023-01-31T12:22:28.306Z,97721.28
2023-01-31T12:25:16.582Z,97727.47
2023-01-31T12:28:19.654Z,97730.19
2023-01-31T12:31:06.995Z,97724.38
2023-01-31T12:33:38.694Z,97729.44
2023-01-31T12:36:22.649Z,97723.31
2023-01-31T12:38:59.228Z,97724.84
2023-01-31T12:41:42.668Z,97706.44
2023-01-31T12:44:32.409Z,97710.63
2023-01-31T12:47:16.828Z,97709.22
2023-01-31T12:50:16.420Z,97713.44
2023-01-31T12:53:08.934Z,97713.00
2023-01-31T12:55:50.734Z,97712.16
2023-01-31T12:58:38.027Z,97712.69
2023-01-31T13:01:49.643Z,97719.50
2023-01-31T13:04:32.277Z,97714.97
2023-01-31T13:07:06.816Z,97707.41
2023-01-31T13:09:39.436Z,97712.09
2023-01-31T13:12:20.492Z,97710.63
2023-01-31T13:15:29.725Z,97700.75
2023-01-31T13:18:04.068Z,97704.31
2023-01-31T13:20:43.004Z,97685.59
2023-01-31T13:23:32.515Z,97711.47
2023-01-31T13:26:27.553Z,97706.13
2023-01-31T13:29:19.484Z,97707.59
2023-01-31T13:32:11.001Z,97709.72
2023-01-31T13:34:53.017Z,97705.19
2023-01-31T13:37:22.798Z,97710.34
2023-01-31T13:40:04.009Z,97710.84
2023-01-31T13:42:33.896Z,97714.56
2023-01-31T13:45:08.439Z,97717.97
2023-01-31T13:47:52.145Z,97697.97
2023-01-31T13:50:50.075Z,97720.72
2023-01-31T13:53:27.079Z,97713.13
2023-01-31T13:55:56.275Z,97716.69
2023-01-31T13:58:37.578Z,97714.00
2023-01-31T14:01:16.961Z,97715.25
2023-01-31T14:04:18.021Z,97706.66
2023-01-31T14:07:16.575Z,97708.81
2023-01-31T14:09:51.838Z,97714.00
2023-01-31T14:12:20.631Z,97708.66
2023-01-31T14:14:54.267Z,97704.91
2023-01-31T14:17:23.202Z,97706.19
2023-01-31T14:19:52.177Z,97707.63
2023-01-31T14:22:24.128Z,97706.50
2023-01-31T14:25:00.665Z,97702.31
2023-01-31T14:27:43.866Z,97697.00
2023-01-31T14:30:34.649Z,97697.31
2023-01-31T14:33:16.168Z,97691.16
2023-01-31T14:36:13.100Z,97707.31
2023-01-31T14:38:51.571Z,97698.56
2023-01-31T14:41:40.610Z,97693.91
2023-01-31T14:44:44.750Z,97697.94
2023-01-31T14:47:26.651Z,97702.31
2023-01-31T14:50:32.070Z,97697.75
2023-01-31T14:53:12.812Z,97709.09
2023-01-31T14:55:50.418Z,97697.63
2023-01-31T14:58:25.401Z,97697.97
2023-01-31T15:01:04.102Z,97676.59
2023-01-31T15:03:41.183Z,97680.31
2023-01-31T15:06:26.783Z,97686.16
2023-01-31T15:09:18.239Z,97688.09
2023-01-31T15:11:48.689Z,97665.28
2023-01-31T15:14:37.467Z,97684.88
2023-01-31T15:17:35.698Z,97675.47
2023-01-31T15:20:21.291Z,97686.78
2023-01-31T15:22:51.509Z,97654.78
2023-01-31T15:25:44.956Z,97678.41
2023-01-31T15:28:17.280Z,97674.34
2023-01-31T15:30:47.251Z,97681.47
2023-01-31T15:33:28.818Z,97686.00
2023-01-31T15:36:09.925Z,97672.72
2023-01-31T15:38:41.709Z,97678.41
2023-01-31T15:41:23.256Z,97675.81
2023-01-31T15:43:57.808Z,97651.53
2023-01-31T15:46:31.492Z,97675.47
2023-01-31T15:49:01.661Z,97666.44
2023-01-31T15:51:32.878Z,97668.50
2023-01-31T15:54:07.258Z,97640.22
2023-01-31T15:56:40.343Z,97658.34
2023-01-31T15:59:14.965Z,97650.56
2023-01-31T16:01:50.503Z,97660.91
2023-01-31T16:04:19.898Z,97663.03
2023-01-31T16:06:48.939Z,97664.50
2023-01-31T16:09:32.872Z,97661.25
2023-01-31T16:12:03.471Z,97665.78
2023-01-31T16:15:34.232Z,97665.94
2023-01-31T16:18:38.094Z,97656.25
2023-01-31T16:22:22.438Z,97669.97
2023-01-31T16:24:58.492Z,97664.81
2023-01-31T16:27:33.601Z,97654.00
2023-01-31T16:30:02.641Z,97658.50
2023-01-31T16:32:38.762Z,97656.25
2023-01-31T16:35:30.165Z,97653.16
2023-01-31T16:38:08.776Z,97652.69
2023-01-31T16:40:53.477Z,97640.38
2023-01-31T16:43:28.407Z,97644.44
2023-01-31T16:46:18.559Z,97647.97
2023-01-31T16:49:03.739Z,97647.69
2023-01-31T16:51:33.285Z,97654.00
2023-01-31T16:54:24.631Z,97644.59
2023-01-31T16:57:02.780Z,97642.34
2023-01-31T16:59:34.728Z,97641.34
2023-01-31T17:02:40.493Z,97628.59
2023-01-31T17:05:32.193Z,97628.25
2023-01-31T17:08:01.049Z,97627.94
2023-01-31T17:10:32.081Z,97626.81
2023-01-31T17:13:17.694Z,97627.47
2023-01-31T17:15:46.781Z,97620.03
2023-01-31T17:18:16.038Z,97616.31
2023-01-31T17:20:49.916Z,97610.97
2023-01-31T17:23:19.549Z,97610.47
2023-01-31T17:25:48.924Z,97613.72
2023-01-31T17:28:17.737Z,97614.19
2023-01-31T17:30:46.994Z,97600.25
2023-01-31T17:33:16.509Z,97621.13
2023-01-31T17:35:48.392Z,97611.59
2023-01-31T17:38:17.316Z,97609.31
2023-01-31T17:40:49.762Z,97599.59
2023-01-31T17:43:25.722Z,97602.94
2023-01-31T17:45:54.668Z,97605.09
2023-01-31T17:48:26.600Z,97607.69
2023-01-31T17:50:56.183Z,97602.03
2023-01-31T17:53:25.191Z,97608.19
2023-01-31T17:55:55.495Z,97603.03
2023-01-31T17:58:25.263Z,97602.53
2023-01-31T18:00:56.117Z,97600.94
2023-01-31T18:03:27.560Z,97589.63
2023-01-31T18:06:04.378Z,97590.28
2023-01-31T18:08:33.580Z,97583.31
2023-01-31T18:11:11.283Z,97589.63
2023-01-31T18:13:40.602Z,97591.41
2023-01-31T18:16:13.558Z,97578.81
2023-01-31T18:18:46.464Z,97589.31
2023-01-31T18:21:18.198Z,97589.31
2023-01-31T18:24:04.954Z,97588.66
2023-01-31T18:26:34.040Z,97586.25
2023-01-31T18:29:02.966Z,97586.75
2023-01-31T18:31:32.480Z,97593.69
2023-01-31T18:34:01.581Z,97597.88
2023-01-31T18:36:30.398Z,97592.53
2023-01-31T18:38:59.157Z,97590.91
2023-01-31T18:41:28.004Z,97591.41
2023-01-31T18:43:56.820Z,97586.56
2023-01-31T18:46:26.184Z,97589.47
2023-01-31T18:48:55.294Z,97589.47
2023-01-31T18:51:24.108Z,97578.97
2023-01-31T18:53:53.091Z,97591.25
2023-01-31T18:56:24.227Z,97595.47
2023-01-31T18:58:54.931Z,97588.66
2023-01-31T19:01:26.553Z,97589.63
2023-01-31T19:03:58.123Z,97596.25
2023-01-31T19:06:35.974Z,97602.22
2023-01-31T19:09:07.374Z,97601.25
2023-01-31T19:11:36.351Z,97599.63
2023-01-31T19:14:09.867Z,97597.06
2023-01-31T19:16:41.123Z,97600.63
2023-01-31T19:19:11.287Z,97595.28
2023-01-31T19:21:40.507Z,97589.31
2023-01-31T19:24:13.408Z,97587.22
2023-01-31T19:26:43.034Z,97587.69
2023-01-31T19:29:16.175Z,97589.78
2023-01-31T19:31:45.776Z,97580.13
2023-01-31T19:34:14.734Z,97584.78
2023-01-31T19:36:45.294Z,97568.16
2023-01-31T19:39:14.922Z,97567.97
2023-01-31T19:41:43.726Z,97569.44
2023-01-31T19:44:12.699Z,97564.28
2023-01-31T19:46:41.529Z,97569.59
2023-01-31T19:49:10.449Z,97556.19
2023-01-31T19:51:39.306Z,97567.03
2023-01-31T19:54:08.511Z,97560.72
2023-01-31T19:56:39.064Z,97558.75
2023-01-31T19:59:08.002Z,97546.16
2023-01-31T20:01:37.401Z,97550.50
2023-01-31T20:04:06.678Z,97551.19
2023-01-31T20:06:35.761Z,97558.28
2023-01-31T20:09:08.764Z,97555.06
2023-01-31T20:11:37.695Z,97545.03
2023-01-31T20:14:07.073Z,97544.72
2023-01-31T20:16:35.981Z,97551.00
2023-01-31T20:19:07.076Z,97555.06
2023-01-31T20:21:36.181Z,97537.91
2023-01-31T20:24:05.168Z,97545.03
2023-01-31T20:26:35.759Z,97542.13
2023-01-31T20:29:05.025Z,97531.00
2023-01-31T20:31:33.882Z,97530.50
2023-01-31T20:34:02.785Z,97532.75
2023-01-31T20:36:31.613Z,97524.50
2023-01-31T20:39:00.468Z,97522.56
2023-01-31T20:41:30.153Z,97514.16
2023-01-31T20:43:58.983Z,97518.34
2023-01-31T20:46:27.883Z,97505.91
2023-01-31T20:48:58.782Z,97503.66
2023-01-31T20:51:27.690Z,97513.50
2023-01-31T20:53:56.581Z,97505.28
2023-01-31T20:56:25.467Z,97510.28
2023-01-31T20:58:54.442Z,97504.28
2023-01-31T21:01:23.911Z,97498.50
2023-01-31T21:03:53.047Z,97498.31
2023-01-31T21:06:21.887Z,97490.41
2023-01-31T21:08:50.795Z,97495.91
2023-01-31T21:11:19.786Z,97494.25
2023-01-31T21:13:48.941Z,97496.19
2023-01-31T21:16:17.896Z,97493.59
2023-01-31T21:18:46.785Z,97486.81
2023-01-31T21:21:23.872Z,97490.03
2023-01-31T21:23:54.110Z,97488.56
2023-01-31T21:26:25.678Z,97481.81
2023-01-31T21:28:55.690Z,97488.56
2023-01-31T21:31:24.958Z,97486.66
2023-01-31T21:33:54.123Z,97490.03
2023-01-31T21:36:26.116Z,97476.28
2023-01-31T21:38:55.262Z,97483.72
2023-01-31T21:41:42.260Z,97481.31
2023-01-31T21:44:11.176Z,97477.59
2023-01-31T21:46:39.921Z,97475.00
2023-01-31T21:49:09.069Z,97482.75
2023-01-31T21:51:38.112Z,97483.56
2023-01-31T21:54:07.029Z,97479.19
2023-01-31T21:56:35.862Z,97478.38
2023-01-31T21:59:05.241Z,97485.69
2023-01-31T22:01:36.895Z,97482.94
2023-01-31T22:04:05.944Z,97474.53
2023-01-31T22:06:40.552Z,97478.13
2023-01-31T22:09:12.752Z,97465.03
2023-01-31T22:11:42.947Z,97466.78
2023-01-31T22:14:14.317Z,97462.91
2023-01-31T22:16:43.678Z,97466.94
2023-01-31T22:19:14.079Z,97458.56
2023-01-31T22:21:43.950Z,97464.38
2023-01-31T22:24:12.838Z,97462.78
2023-01-31T22:26:44.411Z,97462.78
2023-01-31T22:29:16.207Z,97463.47
2023-01-31T22:31:45.895Z,97457.16
2023-01-31T22:34:16.979Z,97455.53
2023-01-31T22:36:45.763Z,97450.72
2023-01-31T22:39:16.463Z,97442.50
2023-01-31T22:41:45.386Z,97453.47
2023-01-31T22:44:14.481Z,97450.09
2023-01-31T22:46:43.344Z,97441.22
2023-01-31T22:49:12.238Z,97440.56
2023-01-31T22:51:41.073Z,97443.13
2023-01-31T22:54:10.032Z,97434.75
2023-01-31T22:56:38.898Z,97442.81
2023-01-31T22:59:10.287Z,97443.16
2023-01-31T23:01:40.271Z,97441.53
2023-01-31T23:04:11.280Z,97431.69
2023-01-31T23:06:40.272Z,97427.97
2023-01-31T23:09:09.100Z,97435.69
2023-01-31T23:11:38.707Z,97427.44
2023-01-31T23:14:07.678Z,97430.00
2023-01-31T23:16:55.009Z,97422.72
2023-01-31T23:19:24.109Z,97419.16
2023-01-31T23:21:52.994Z,97430.78
2023-01-31T23:24:21.887Z,97429.84
2023-01-31T23:26:50.850Z,97430.47
2023-01-31T23:29:19.724Z,97417.25
2023-01-31T23:31:48.623Z,97419.00
2023-01-31T23:34:17.411Z,97416.31
2023-01-31T23:36:46.223Z,97407.28
2023-01-31T23:39:15.043Z,97406.28
2023-01-31T23:41:44.136Z,97411.94
2023-01-31T23:44:13.125Z,97409.38
2023-01-31T23:46:41.987Z,97406.75
2023-01-31T23:49:10.936Z,97412.53
2023-01-31T23:51:39.803Z,97407.69
2023-01-31T23:54:08.777Z,97409.13
2023-01-31T23:56:37.607Z,97410.06
2023-01-31T23:59:06.478Z,97403.56
